Time;durP1;ratioP1;P1;durP2;ratioP2;P2;SDS_P1;SDS_P2;PMS_P1;PMS_P2;Temp;Humidity;BMP_temperature;BMP_pressure;BME280_temperature;BME280_humidity;BME280_pressure;Samples;Min_cycle;Max_cycle;Signal;HPM_P1;HPM_P2
2024/03/08 00:00:42;;;;;;;32.77;26.67;;;2.40;99.90;;;;;;4783967;29;20620;-41
2024/03/08 00:03:10;;;;;;;29.70;24.98;;;2.30;99.90;;;;;;4789307;29;20194;-40
2024/03/08 00:05:35;;;;;;;35.83;27.33;;;2.20;99.90;;;;;;4785649;29;20249;-60
2024/03/08 00:08:01;;;;;;;33.60;25.10;;;2.10;99.90;;;;;;4793388;29;21216;-56
2024/03/08 00:10:28;;;;;;;34.27;25.20;;;2.00;99.90;;;;;;4786961;29;20532;-60
2024/03/08 00:12:54;;;;;;;30.00;25.42;;;2.00;1.00;;;;;;4793014;29;20256;-60
2024/03/08 00:15:20;;;;;;;35.90;26.97;;;1.90;1.00;;;;;;4788524;29;20194;-50
2024/03/08 00:17:46;;;;;;;30.90;25.90;;;1.80;1.00;;;;;;4784382;29;20211;-59
2024/03/08 00:20:13;;;;;;;36.53;26.58;;;1.80;1.00;;;;;;4782538;29;20876;-59
2024/03/08 00:22:39;;;;;;;33.42;25.90;;;1.70;99.90;;;;;;4788756;29;20270;-59
2024/03/08 00:25:05;;;;;;;29.00;25.03;;;1.60;99.90;;;;;;4787997;29;21194;-53
2024/03/08 00:27:31;;;;;;;34.22;26.83;;;1.60;1.00;;;;;;4781415;29;20523;-58
2024/03/08 00:29:57;;;;;;;34.27;25.50;;;1.50;99.90;;;;;;4792028;29;20959;-59
2024/03/08 00:32:24;;;;;;;31.48;26.35;;;1.50;99.90;;;;;;4793209;29;20431;-60
2024/03/08 00:34:54;;;;;;;33.78;26.08;;;1.20;1.00;;;;;;4791425;29;20209;-59
2024/03/08 00:37:20;;;;;;;29.40;24.63;;;;;;;;;;4792549;29;20247;-42
2024/03/08 00:39:45;;;;;;;29.73;24.70;;;1.20;1.00;;;;;;4785949;29;20190;-40
2024/03/08 00:42:11;;;;;;;32.47;25.90;;;1.30;99.90;;;;;;4787377;29;20255;-40
2024/03/08 00:44:37;;;;;;;32.95;26.75;;;1.30;99.90;;;;;;4792993;29;20549;-43
2024/03/08 00:47:04;;;;;;;30.83;26.30;;;1.20;1.00;;;;;;4775835;29;20207;-41
2024/03/08 00:49:30;;;;;;;35.20;28.58;;;1.20;1.00;;;;;;4788894;29;20214;-48
2024/03/08 00:51:56;;;;;;;30.90;25.63;;;1.10;1.00;;;;;;4788473;29;20662;-49
2024/03/08 00:54:21;;;;;;;33.80;26.40;;;1.10;1.00;;;;;;4787948;29;20830;-41
2024/03/08 00:56:47;;;;;;;30.30;25.50;;;1.00;99.90;;;;;;4781884;29;20263;-55
2024/03/08 00:59:14;;;;;;;31.77;24.77;;;1.00;1.00;;;;;;4786556;29;20213;-59
2024/03/08 01:01:40;;;;;;;31.85;26.10;;;1.00;1.00;;;;;;4788921;29;20187;-59
2024/03/08 01:04:05;;;;;;;33.38;26.73;;;1.00;1.00;;;;;;4791862;29;20179;-60
2024/03/08 01:06:31;;;;;;;31.50;26.80;;;1.00;99.90;;;;;;4786241;29;20239;-60
2024/03/08 01:08:57;;;;;;;35.70;25.03;;;0.90;1.00;;;;;;4788497;29;20209;-59
2024/03/08 01:11:22;;;;;;;35.13;26.23;;;0.90;1.00;;;;;;4781416;29;20437;-59
2024/03/08 01:13:49;;;;;;;32.67;27.03;;;0.80;1.00;;;;;;4788724;29;20194;-55
2024/03/08 01:16:16;;;;;;;41.25;27.02;;;0.80;20.80;;;;;;4785323;29;20612;-60
2024/03/08 01:18:42;;;;;;;31.17;26.30;;;0.70;99.90;;;;;;4792517;29;20475;-59
2024/03/08 01:21:08;;;;;;;39.20;26.77;;;0.60;99.90;;;;;;4786770;29;20206;-58
2024/03/08 01:23:34;;;;;;;36.13;25.97;;;0.60;1.00;;;;;;4788500;29;20530;-59
2024/03/08 01:26:02;;;;;;;35.92;26.55;;;0.50;1.00;;;;;;4785391;29;20257;-60
2024/03/08 01:28:28;;;;;;;31.35;24.30;;;0.60;1.00;;;;;;4796323;29;20193;-60
2024/03/08 01:30:57;;;;;;;35.38;24.83;;;0.50;92.10;;;;;;4793550;29;20619;-59
2024/03/08 01:33:27;;;;;;;34.55;27.25;;;0.50;99.90;;;;;;4795840;29;20661;-59
2024/03/08 01:35:53;;;;;;;34.03;25.55;;;0.40;99.90;;;;;;4794952;29;20440;-59
2024/03/08 01:38:21;;;;;;;36.38;27.17;;;0.40;99.90;;;;;;4794395;29;20228;-59
2024/03/08 01:40:48;;;;;;;38.13;28.08;;;0.40;1.00;;;;;;4786099;29;20220;-60
2024/03/08 01:43:40;;;;;;;31.27;24.55;;;0.40;1.00;;;;;;4795467;29;20293;-60
2024/03/08 01:46:06;;;;;;;32.20;25.05;;;0.30;1.00;;;;;;4781760;29;20465;-60
2024/03/08 01:48:32;;;;;;;34.53;26.05;;;0.30;1.00;;;;;;4795390;29;20695;-60
2024/03/08 01:50:58;;;;;;;28.67;24.70;;;0.30;1.00;;;;;;4794648;29;20227;-43
2024/03/08 01:53:30;;;;;;;30.27;24.87;;;0.20;1.00;;;;;;4787558;29;20289;-41
2024/03/08 01:55:57;;;;;;;38.50;26.73;;;0.20;1.00;;;;;;4789333;29;20692;-40
2024/03/08 01:58:24;;;;;;;32.45;25.13;;;0.20;1.00;;;;;;4781916;29;20243;-40
2024/03/08 02:00:49;;;;;;;30.95;25.30;;;0.20;1.00;;;;;;4791995;29;20190;-43
2024/03/08 02:03:16;;;;;;;31.13;25.20;;;0.10;1.00;;;;;;4783889;29;20199;-41
2024/03/08 02:05:43;;;;;;;27.80;23.90;;;0.10;1.00;;;;;;4789448;29;20767;-41
2024/03/08 02:08:14;;;;;;;36.83;25.05;;;0.10;1.00;;;;;;4792213;29;20197;-44
2024/03/08 02:10:41;;;;;;;34.53;25.65;;;0.00;1.00;;;;;;4795406;29;20221;-42
2024/03/08 02:13:07;;;;;;;37.40;27.20;;;0.00;1.00;;;;;;4789853;29;20193;-40
2024/03/08 02:16:01;;;;;;;41.38;26.30;;;0.00;1.00;;;;;;4785048;29;20314;-42
2024/03/08 02:18:28;;;;;;;35.80;26.45;;;-0.10;1.00;;;;;;4791119;29;20230;-42
2024/03/08 02:20:58;;;;;;;36.95;28.20;;;-0.10;1.00;;;;;;4787779;29;20434;-43
2024/03/08 02:23:25;;;;;;;36.10;25.20;;;-0.20;1.00;;;;;;4782748;29;20189;-41
2024/03/08 02:25:51;;;;;;;32.88;27.15;;;-0.20;1.00;;;;;;4795137;29;20198;-41
2024/03/08 02:28:20;;;;;;;41.10;28.85;;;-0.20;1.00;;;;;;4785821;29;20205;-42
2024/03/08 02:30:50;;;;;;;38.65;28.45;;;-0.10;1.00;;;;;;4795577;29;20200;-41
2024/03/08 02:33:17;;;;;;;37.10;27.00;;;-0.20;1.00;;;;;;4786943;29;20594;-42
2024/03/08 02:35:47;;;;;;;33.08;27.83;;;-0.20;1.00;;;;;;4794465;29;20251;-42
2024/03/08 02:38:16;;;;;;;37.15;28.25;;;-0.20;1.00;;;;;;4783392;29;20580;-41
2024/03/08 02:40:45;;;;;;;35.88;25.95;;;-0.20;1.00;;;;;;4777923;29;20729;-42
2024/03/08 02:43:12;;;;;;;39.63;27.10;;;-0.20;1.00;;;;;;4788273;29;20272;-41
2024/03/08 02:45:38;;;;;;;38.35;28.30;;;-0.20;1.00;;;;;;4794909;29;20261;-41
2024/03/08 02:48:06;;;;;;;36.35;26.90;;;-0.20;1.00;;;;;;4790958;29;20193;-42
2024/03/08 02:50:32;;;;;;;38.45;27.23;;;-0.20;1.00;;;;;;4794779;29;20197;-42
2024/03/08 02:52:57;;;;;;;36.95;27.02;;;-0.20;1.00;;;;;;4792384;29;20644;-41
2024/03/08 02:55:25;;;;;;;34.57;26.57;;;-0.20;1.00;;;;;;4789924;29;20282;-41
2024/03/08 02:57:52;;;;;;;34.63;27.60;;;-0.20;7.10;;;;;;4786026;29;20268;-41
2024/03/08 03:00:19;;;;;;;35.80;27.20;;;-0.30;12.70;;;;;;4783185;29;20210;-46
2024/03/08 03:02:45;;;;;;;37.03;27.90;;;-0.20;19.50;;;;;;4782635;29;20192;-42
2024/03/08 03:05:11;;;;;;;38.75;28.20;;;-0.30;20.60;;;;;;4781674;29;20258;-42
2024/03/08 03:07:37;;;;;;;41.60;27.53;;;-0.30;20.10;;;;;;4779598;29;20581;-42
2024/03/08 03:10:03;;;;;;;37.63;28.27;;;-0.30;18.70;;;;;;4789655;29;20187;-41
2024/03/08 03:12:30;;;;;;;37.53;26.20;;;-0.30;18.40;;;;;;4783737;29;20956;-41
2024/03/08 03:14:56;;;;;;;34.60;27.40;;;-0.30;17.70;;;;;;4787659;29;20192;-46
2024/03/08 03:17:26;;;;;;;40.35;27.88;;;-0.30;15.80;;;;;;4790255;29;20608;-60
2024/03/08 03:19:52;;;;;;;42.25;27.80;;;-0.30;17.00;;;;;;4787237;29;20232;-61
2024/03/08 03:22:19;;;;;;;43.25;28.52;;;-0.40;14.80;;;;;;4794626;29;20203;-60
2024/03/08 03:24:46;;;;;;;34.45;25.95;;;-0.40;21.80;;;;;;4790179;29;20223;-61
2024/03/08 03:27:12;;;;;;;38.80;27.45;;;-0.40;28.00;;;;;;4787538;29;20417;-49
2024/03/08 03:29:47;;;;;;;37.80;28.00;;;-0.40;34.70;;;;;;4787904;29;20680;-48
2024/03/08 03:32:13;;;;;;;37.60;28.20;;;-0.40;52.10;;;;;;4789576;29;20720;-59
2024/03/08 03:34:39;;;;;;;36.00;27.25;;;-0.40;70.80;;;;;;4791441;29;20188;-58
2024/03/08 03:37:06;;;;;;;37.92;27.20;;;-0.40;87.30;;;;;;4787222;29;20207;-59
2024/03/08 03:39:34;;;;;;;39.60;27.77;;;-0.40;95.40;;;;;;4792092;29;20219;-61
2024/03/08 03:42:01;;;;;;;38.05;26.33;;;-0.40;99.90;;;;;;4793737;29;20239;-60
2024/03/08 03:44:28;;;;;;;36.75;27.50;;;-0.40;99.90;;;;;;4782972;29;20205;-61
2024/03/08 03:46:53;;;;;;;39.90;27.77;;;-0.30;99.90;;;;;;4793807;29;20226;-61
2024/03/08 03:49:19;;;;;;;35.80;27.70;;;-0.40;99.90;;;;;;4783274;29;20505;-57
2024/03/08 03:51:45;;;;;;;34.67;27.25;;;-0.40;99.90;;;;;;4789585;29;20364;-60
2024/03/08 03:54:11;;;;;;;36.28;26.35;;;-0.40;99.10;;;;;;4785723;29;20227;-61
2024/03/08 03:56:37;;;;;;;37.00;27.27;;;-0.40;95.60;;;;;;4793479;29;20204;-61
2024/03/08 03:59:02;;;;;;;40.63;27.30;;;-0.40;94.60;;;;;;4790290;29;20221;-54
2024/03/08 04:01:29;;;;;;;39.50;27.07;;;-0.50;91.90;;;;;;4788044;29;20189;-60
2024/03/08 04:03:55;;;;;;;39.67;27.15;;;-0.40;90.50;;;;;;4788774;29;20665;-61
2024/03/08 04:06:22;;;;;;;38.20;26.43;;;-0.50;91.20;;;;;;4784029;29;20240;-61
2024/03/08 04:08:48;;;;;;;37.10;28.25;;;-0.50;86.90;;;;;;4781711;29;20549;-62
2024/03/08 04:11:16;;;;;;;35.27;27.10;;;-0.50;91.10;;;;;;4784662;29;20447;-61
2024/03/08 04:13:41;;;;;;;38.05;26.80;;;-0.50;92.50;;;;;;4805700;29;20202;-56
2024/03/08 04:16:07;;;;;;;34.70;24.80;;;-0.60;95.40;;;;;;4785272;29;20228;-60
2024/03/08 04:18:35;;;;;;;37.03;27.55;;;-0.60;95.50;;;;;;4785391;29;20466;-60
2024/03/08 04:21:02;;;;;;;38.05;28.45;;;-0.60;94.90;;;;;;4793143;29;20279;-48
2024/03/08 04:23:28;;;;;;;35.38;26.17;;;-0.70;95.30;;;;;;4789627;29;20239;-61
2024/03/08 04:25:54;;;;;;;36.28;26.55;;;-0.70;97.00;;;;;;4781946;29;20191;-61
2024/03/08 04:28:19;;;;;;;38.57;25.07;;;-0.70;96.20;;;;;;4792680;29;20489;-42
2024/03/08 04:30:46;;;;;;;34.83;24.97;;;-0.70;96.40;;;;;;4782063;29;20201;-43
2024/03/08 04:33:11;;;;;;;34.50;26.10;;;-0.70;97.40;;;;;;4781154;29;20422;-45
2024/03/08 04:35:37;;;;;;;33.03;26.07;;;-0.80;97.30;;;;;;4780364;29;20484;-41
2024/03/08 04:38:05;;;;;;;36.23;26.47;;;-0.80;96.30;;;;;;4789870;29;20361;-42
2024/03/08 04:40:31;;;;;;;36.50;25.95;;;-0.80;96.70;;;;;;4780669;29;20299;-44
2024/03/08 04:42:58;;;;;;;40.40;27.87;;;-0.80;95.70;;;;;;4790420;29;20291;-41
2024/03/08 04:45:25;;;;;;;42.17;26.13;;;-0.90;94.40;;;;;;4784275;29;20448;-42
2024/03/08 04:47:52;;;;;;;35.25;25.50;;;-0.90;95.40;;;;;;4790439;29;20743;-43
2024/03/08 04:50:18;;;;;;;40.25;27.30;;;-0.90;95.10;;;;;;4790044;29;20196;-43
2024/03/08 04:52:44;;;;;;;36.47;26.98;;;-1.00;98.90;;;;;;4781350;29;20195;-41
2024/03/08 04:55:09;;;;;;;38.43;26.80;;;-0.90;99.90;;;;;;4790440;29;20231;-47
2024/03/08 04:57:35;;;;;;;38.77;26.90;;;-1.00;99.20;;;;;;4788550;29;20213;-42
2024/03/08 05:00:07;;;;;;;38.10;25.93;;;-1.10;99.90;;;;;;4784220;29;20198;-42
2024/03/08 05:02:33;;;;;;;39.55;26.90;;;-1.00;99.70;;;;;;4786998;29;20184;-41
2024/03/08 05:04:59;;;;;;;36.50;26.97;;;-1.10;99.90;;;;;;4782644;29;20614;-44
2024/03/08 05:07:25;;;;;;;37.83;24.20;;;-1.10;99.90;;;;;;4784909;29;20753;-42
2024/03/08 05:09:51;;;;;;;32.72;25.10;;;-1.10;99.90;;;;;;4786910;29;20655;-42
2024/03/08 05:12:18;;;;;;;33.27;27.23;;;-1.10;99.90;;;;;;4785709;29;20189;-42
2024/03/08 05:14:49;;;;;;;41.08;26.90;;;-1.10;99.90;;;;;;4784206;29;20668;-42
2024/03/08 05:17:16;;;;;;;37.47;27.15;;;-1.10;99.90;;;;;;4777828;29;20265;-42
2024/03/08 05:19:42;;;;;;;36.42;25.05;;;-1.10;99.90;;;;;;4779651;29;20233;-42
2024/03/08 05:22:08;;;;;;;35.87;25.40;;;-1.20;99.90;;;;;;4779833;29;20191;-45
2024/03/08 05:24:33;;;;;;;41.30;25.90;;;-1.10;99.90;;;;;;4778315;29;20186;-42
2024/03/08 05:27:00;;;;;;;37.33;25.93;;;-1.20;99.90;;;;;;4781945;29;20205;-59
2024/03/08 05:29:26;;;;;;;41.42;26.63;;;-1.20;99.90;;;;;;4778975;29;20207;-59
2024/03/08 05:31:52;;;;;;;37.17;26.52;;;-1.20;99.90;;;;;;4787484;29;20204;-49
2024/03/08 05:34:19;;;;;;;35.55;26.40;;;-1.20;99.90;;;;;;4780900;29;20198;-42
2024/03/08 05:36:46;;;;;;;37.72;25.90;;;-1.20;99.90;;;;;;4788525;29;20191;-41
2024/03/08 05:39:15;;;;;;;40.25;27.60;;;-1.20;99.90;;;;;;4787212;29;20246;-43
2024/03/08 05:41:41;;;;;;;38.42;25.15;;;-1.20;99.90;;;;;;4784592;29;20207;-45
2024/03/08 05:44:07;;;;;;;33.00;26.05;;;-1.30;99.90;;;;;;4784713;29;21180;-44
2024/03/08 05:46:33;;;;;;;42.50;26.38;;;-1.30;99.90;;;;;;4782281;29;20280;-45
2024/03/08 05:48:59;;;;;;;40.72;26.25;;;-1.30;99.90;;;;;;4792802;29;20217;-60
2024/03/08 05:51:28;;;;;;;42.53;27.63;;;-1.30;99.90;;;;;;4784843;29;20183;-59
2024/03/08 05:53:55;;;;;;;40.92;27.70;;;-1.30;99.90;;;;;;4792465;29;20685;-60
2024/03/08 05:56:23;;;;;;;37.50;26.10;;;-1.30;99.90;;;;;;4790908;29;20249;-60
2024/03/08 05:58:49;;;;;;;41.00;27.17;;;-1.20;99.90;;;;;;4783120;29;20208;-60
2024/03/08 06:01:15;;;;;;;38.50;26.30;;;-1.20;99.90;;;;;;4787296;29;20232;-56
2024/03/08 06:03:44;;;;;;;40.67;26.30;;;-1.20;99.90;;;;;;4786545;29;20283;-61
2024/03/08 06:06:12;;;;;;;41.03;28.77;;;-1.10;99.90;;;;;;4787155;29;20477;-50
2024/03/08 06:08:38;;;;;;;42.88;28.35;;;-1.10;99.90;;;;;;4792263;29;20199;-58
2024/03/08 06:11:05;;;;;;;42.80;27.93;;;-1.00;99.90;;;;;;4792034;29;20195;-59
2024/03/08 06:13:31;;;;;;;41.47;27.27;;;-0.90;99.90;;;;;;4792985;29;20502;-59
2024/03/08 06:15:57;;;;;;;42.80;29.30;;;-0.90;99.90;;;;;;4795051;29;20660;-59
2024/03/08 06:18:22;;;;;;;43.33;28.10;;;-0.80;99.90;;;;;;4788284;29;20536;-59
2024/03/08 06:20:48;;;;;;;41.27;28.20;;;-0.70;99.90;;;;;;4788326;29;20201;-56
2024/03/08 06:23:19;;;;;;;42.07;27.87;;;-0.70;99.90;;;;;;4791319;29;20214;-59
2024/03/08 06:25:45;;;;;;;46.63;27.77;;;-0.70;99.90;;;;;;4791875;29;20187;-60
2024/03/08 06:28:11;;;;;;;43.90;28.17;;;-0.70;99.90;;;;;;4793490;29;20670;-60
2024/03/08 06:30:37;;;;;;;45.40;28.60;;;-0.60;99.90;;;;;;4793220;29;20433;-59
2024/03/08 06:33:02;;;;;;;37.93;27.20;;;-0.60;99.90;;;;;;4784199;29;20755;-51
2024/03/08 06:35:28;;;;;;;50.70;29.10;;;-0.50;99.90;;;;;;4788162;29;20639;-60
2024/03/08 06:37:54;;;;;;;46.63;27.17;;;-0.50;99.90;;;;;;4790945;29;20690;-49
2024/03/08 06:40:19;;;;;;;44.77;26.33;;;-0.50;99.90;;;;;;4790259;29;20189;-59
2024/03/08 06:42:45;;;;;;;46.10;28.27;;;-0.40;99.90;;;;;;4791129;29;20200;-60
2024/03/08 06:45:12;;;;;;;47.73;28.07;;;-0.40;99.90;;;;;;4794904;29;20178;-56
2024/03/08 06:47:38;;;;;;;46.50;30.08;;;-0.30;99.90;;;;;;4783729;29;20190;-60
2024/03/08 06:50:04;;;;;;;44.90;29.20;;;-0.30;99.90;;;;;;4795028;29;20648;-56
2024/03/08 06:52:29;;;;;;;41.83;27.85;;;-0.20;99.90;;;;;;4782964;29;20565;-60
2024/03/08 06:54:57;;;;;;;45.47;28.10;;;-0.20;99.90;;;;;;4794545;29;20201;-59
2024/03/08 06:57:22;;;;;;;41.42;28.80;;;-0.10;99.90;;;;;;4789935;29;20282;-60
2024/03/08 06:59:49;;;;;;;37.97;27.60;;;-0.10;99.90;;;;;;4787003;29;20221;-60
2024/03/08 07:02:14;;;;;;;48.38;29.00;;;0.00;99.90;;;;;;4788562;29;20188;-60
2024/03/08 07:04:40;;;;;;;42.83;27.53;;;0.10;99.90;;;;;;4792355;29;20201;-60
2024/03/08 07:07:12;;;;;;;46.27;28.37;;;0.20;99.90;;;;;;4788171;29;20238;-50
2024/03/08 07:09:38;;;;;;;48.60;29.80;;;0.20;99.90;;;;;;4792583;29;20190;-60
2024/03/08 07:12:04;;;;;;;41.20;28.57;;;0.30;99.90;;;;;;4789744;29;20205;-59
2024/03/08 07:14:30;;;;;;;50.88;29.63;;;0.40;99.90;;;;;;4794546;29;20288;-59
2024/03/08 07:16:56;;;;;;;43.08;28.23;;;0.50;99.90;;;;;;4805549;29;20190;-60
2024/03/08 07:19:22;;;;;;;43.47;28.37;;;0.60;99.90;;;;;;4790493;29;20221;-60
2024/03/08 07:21:48;;;;;;;43.60;29.20;;;0.70;99.90;;;;;;4787466;29;20429;-60
2024/03/08 07:26:59;;;;;;;39.58;27.85;;;0.80;99.90;;;;;;4766204;29;20195;-60
2024/03/08 07:29:25;;;;;;;47.27;29.20;;;0.90;98.10;;;;;;4788895;29;20614;-59
2024/03/08 07:31:56;;;;;;;38.27;27.57;;;1.00;95.90;;;;;;4783673;29;20209;-59
2024/03/08 07:34:21;;;;;;;43.33;28.52;;;1.10;87.90;;;;;;4794080;29;20249;-59
2024/03/08 07:36:47;;;;;;;42.17;28.90;;;1.20;57.40;;;;;;4785432;29;20274;-53
2024/03/08 07:39:13;;;;;;;41.93;29.63;;;1.30;36.10;;;;;;4780506;29;20680;-58
2024/03/08 07:41:41;;;;;;;45.75;29.92;;;1.40;18.80;;;;;;4786257;29;20187;-57
2024/03/08 07:44:07;;;;;;;51.03;30.40;;;1.40;5.50;;;;;;4793666;29;20224;-59
2024/03/08 07:46:36;;;;;;;39.27;28.00;;;1.60;2.10;;;;;;4793654;29;20203;-49
2024/03/08 07:49:02;;;;;;;45.03;29.23;;;1.80;1.00;;;;;;4790034;29;20280;-58
2024/03/08 07:51:28;;;;;;;45.23;29.40;;;1.90;1.00;;;;;;4785668;29;20316;-49
2024/03/08 07:53:54;;;;;;;38.27;28.60;;;2.20;1.00;;;;;;4784598;29;20459;-50
2024/03/08 07:56:21;;;;;;;43.10;29.65;;;2.40;1.00;;;;;;4793678;29;20186;-59
2024/03/08 07:58:48;;;;;;;43.35;30.38;;;2.60;1.00;;;;;;4785263;29;20218;-56
2024/03/08 08:01:20;;;;;;;40.78;30.45;;;2.70;1.00;;;;;;4793616;29;20227;-59
2024/03/08 08:03:48;;;;;;;45.88;28.70;;;2.90;1.00;;;;;;4780245;29;20737;-59
2024/03/08 08:06:15;;;;;;;43.05;28.77;;;3.10;1.00;;;;;;4785647;29;20287;-59
2024/03/08 08:08:44;;;;;;;36.90;28.63;;;3.30;1.00;;;;;;4783984;29;20187;-55
2024/03/08 08:11:11;;;;;;;32.80;26.42;;;3.50;1.00;;;;;;4787957;29;20259;-60
2024/03/08 08:13:37;;;;;;;34.80;25.42;;;3.70;1.00;;;;;;4785602;29;20206;-59
2024/03/08 08:16:05;;;;;;;35.03;25.02;;;3.90;99.90;;;;;;4790989;29;20259;-59
2024/03/08 08:18:32;;;;;;;39.53;26.60;;;4.10;99.90;;;;;;4787283;29;20706;-59
2024/03/08 08:21:00;;;;;;;35.40;27.65;;;4.40;1.00;;;;;;4792574;29;20183;-59
2024/03/08 08:23:25;;;;;;;30.73;24.23;;;4.70;1.00;;;;;;4787738;29;20195;-60
2024/03/08 08:25:51;;;;;;;33.57;26.10;;;5.00;99.90;;;;;;4792513;29;20187;-60
2024/03/08 08:28:18;;;;;;;30.10;24.17;;;5.30;99.90;;;;;;4789057;29;20510;-60
2024/03/08 08:30:44;;;;;;;28.38;24.00;;;5.80;90.10;;;;;;4792340;29;20226;-59
2024/03/08 08:33:10;;;;;;;34.50;25.83;;;6.20;1.00;;;;;;4779926;29;20186;-60
2024/03/08 08:35:37;;;;;;;30.57;25.13;;;6.70;1.00;;;;;;4792097;29;20420;-42
2024/03/08 08:38:07;;;;;;;28.40;23.77;;;7.30;1.00;;;;;;4788538;29;20813;-43
2024/03/08 08:40:33;;;;;;;28.13;25.13;;;7.70;1.00;;;;;;4791555;29;20651;-60
2024/03/08 08:42:59;;;;;;;30.00;24.40;;;8.30;1.00;;;;;;4788941;29;20439;-59
2024/03/08 08:45:25;;;;;;;28.57;25.03;;;8.80;1.00;;;;;;4791888;29;20431;-59
2024/03/08 08:47:52;;;;;;;30.03;26.43;;;9.10;1.00;;;;;;4786851;29;20809;-60
2024/03/08 08:50:23;;;;;;;26.93;23.37;;;9.40;99.90;;;;;;4784687;29;20440;-59
2024/03/08 08:52:49;;;;;;;28.50;25.43;;;9.80;99.90;;;;;;4791621;29;20463;-58
2024/03/08 08:55:15;;;;;;;28.57;25.47;;;10.30;99.90;;;;;;4791247;29;20888;-59
2024/03/08 08:57:41;;;;;;;30.40;24.57;;;10.60;99.90;;;;;;4790260;29;20432;-51
2024/03/08 09:00:09;;;;;;;27.90;25.00;;;10.80;99.90;;;;;;4785658;29;20434;-60
2024/03/08 09:02:37;;;;;;;29.07;26.07;;;11.10;99.90;;;;;;4787727;29;20429;-59
2024/03/08 09:05:03;;;;;;;28.87;25.77;;;11.30;99.90;;;;;;4751080;29;1103410;-59
2024/03/08 09:07:29;;;;;;;28.80;25.87;;;11.60;99.90;;;;;;4781280;29;20474;-55
2024/03/08 09:09:57;;;;;;;27.33;24.40;;;11.90;99.90;;;;;;4780201;29;20544;-60
2024/03/08 09:12:24;;;;;;;30.27;27.07;;;12.30;99.90;;;;;;4792639;29;20432;-59
2024/03/08 09:14:49;;;;;;;28.03;25.10;;;12.60;99.90;;;;;;4790149;29;20436;-59
2024/03/08 09:17:20;;;;;;;27.80;25.10;;;12.50;99.90;;;;;;4792557;29;20436;-59
2024/03/08 09:19:47;;;;;;;28.70;25.80;;;12.80;99.90;;;;;;4792068;29;20230;-60
2024/03/08 09:22:13;;;;;;;29.20;24.30;;;13.20;99.90;;;;;;4791308;29;20695;-60
2024/03/08 09:24:39;;;;;;;27.80;25.00;;;13.30;99.90;;;;;;4790431;29;20464;-57
2024/03/08 09:27:05;;;;;;;26.13;23.37;;;13.70;99.90;;;;;;4792676;29;20543;-62
2024/03/08 09:29:30;;;;;;;27.60;24.70;;;14.10;99.90;;;;;;4784788;29;20199;-59
2024/03/08 09:31:56;;;;;;;29.10;26.00;;;14.20;99.90;;;;;;4792733;29;20619;-53
2024/03/08 09:34:22;;;;;;;28.93;26.03;;;14.20;99.90;;;;;;4786087;29;20195;-60
2024/03/08 09:36:47;;;;;;;27.37;24.77;;;14.40;99.90;;;;;;4792300;29;20200;-60
2024/03/08 09:39:17;;;;;;;30.77;24.30;;;14.60;99.90;;;;;;4780288;29;20498;-61
2024/03/08 09:41:43;;;;;;;26.40;23.73;;;14.70;99.90;;;;;;4782321;29;20179;-60
2024/03/08 09:44:09;;;;;;;27.90;24.83;;;14.80;99.90;;;;;;4782371;29;20429;-60
2024/03/08 09:46:35;;;;;;;28.00;25.20;;;15.10;99.90;;;;;;4792464;29;20451;-58
2024/03/08 09:49:01;;;;;;;27.40;24.70;;;15.50;99.90;;;;;;4795065;29;20532;-59
2024/03/08 09:51:33;;;;;;;27.43;24.57;;;15.60;99.90;;;;;;4785955;29;20209;-60
2024/03/08 09:53:59;;;;;;;25.37;22.83;;;15.60;99.90;;;;;;4791945;29;20783;-59
2024/03/08 09:56:27;;;;;;;25.50;22.90;;;16.00;99.90;;;;;;4786953;29;20605;-51
2024/03/08 10:01:38;;;;;;;28.70;25.70;;;16.20;99.90;;;;;;4793858;29;20444;-56
2024/03/08 10:04:04;;;;;;;27.33;23.70;;;16.30;99.90;;;;;;4793272;29;20802;-60
2024/03/08 10:06:31;;;;;;;25.43;22.93;;;16.50;99.90;;;;;;4785895;29;20483;-59
2024/03/08 10:08:57;;;;;;;26.70;24.00;;;16.40;99.90;;;;;;4787293;29;20954;-54
2024/03/08 10:11:24;;;;;;;27.27;24.50;;;16.50;99.90;;;;;;4789216;29;20455;-52
2024/03/08 10:13:50;;;;;;;26.73;24.20;;;17.00;99.90;;;;;;4794539;29;20442;-60
2024/03/08 10:16:17;;;;;;;27.13;24.53;;;17.10;99.90;;;;;;4779636;29;20440;-61
2024/03/08 10:18:42;;;;;;;29.30;26.20;;;17.20;99.90;;;;;;4794433;29;20210;-43
2024/03/08 10:21:12;;;;;;;27.23;24.43;;;17.10;99.90;;;;;;4791779;29;20528;-45
2024/03/08 10:23:39;;;;;;;27.10;24.40;;;17.20;99.90;;;;;;4795288;29;20187;-48
2024/03/08 10:26:16;;;;;;;27.97;25.17;;;17.30;99.90;;;;;;4792866;29;20450;-49
2024/03/08 10:28:44;;;;;;;26.27;23.80;;;17.50;99.90;;;;;;4795065;29;21076;-47
2024/03/08 10:31:09;;;;;;;27.50;24.90;;;17.90;99.90;;;;;;4793967;29;20428;-47
2024/03/08 10:33:37;;;;;;;24.60;22.20;;;18.30;99.90;;;;;;4783746;29;20436;-44
2024/03/08 10:36:04;;;;;;;25.07;22.77;;;18.50;99.90;;;;;;4779897;29;20565;-48
2024/03/08 10:38:35;;;;;;;26.30;23.80;;;18.80;99.90;;;;;;4788676;29;20478;-49
2024/03/08 10:41:03;;;;;;;26.43;23.93;;;18.70;99.90;;;;;;4787143;29;20428;-50
2024/03/08 10:43:37;;;;;;;27.73;24.93;;;18.60;99.90;;;;;;4795073;29;20640;-47
2024/03/08 10:46:39;;;;;;;25.60;23.30;;;18.90;99.90;;;;;;4786730;29;20915;-46
2024/03/08 10:49:12;;;;;;;27.13;24.67;;;19.00;99.90;;;;;;4793880;29;20741;-47
2024/03/08 10:51:41;;;;;;;27.53;24.93;;;19.30;99.90;;;;;;4792411;29;20443;-44
2024/03/08 10:54:09;;;;;;;26.40;23.97;;;19.40;99.90;;;;;;4794916;29;20428;-46
2024/03/08 10:56:35;;;;;;;25.73;23.33;;;19.70;99.90;;;;;;4779568;29;20898;-50
2024/03/08 10:59:01;;;;;;;27.00;24.77;;;20.00;99.90;;;;;;4791212;29;20502;-44
2024/03/08 11:01:27;;;;;;;27.87;25.37;;;20.40;99.90;;;;;;4790554;29;20651;-46
2024/03/08 11:03:56;;;;;;;26.77;24.07;;;20.40;99.90;;;;;;4793175;29;20500;-48
2024/03/08 11:06:42;;;;;;;26.53;24.13;;;20.20;99.90;;;;;;4785889;29;20247;-46
2024/03/08 11:09:30;;;;;;;26.53;24.13;;;20.00;99.90;;;;;;4794018;29;20818;-50
2024/03/08 11:12:21;;;;;;;25.60;23.10;;;20.20;99.90;;;;;;4794454;29;20827;-49
2024/03/08 11:14:54;;;;;;;26.63;24.23;;;20.30;99.90;;;;;;4794398;29;20496;-44
2024/03/08 11:17:33;;;;;;;25.37;22.97;;;20.80;99.90;;;;;;4784314;29;20441;-43
2024/03/08 11:20:01;;;;;;;24.77;22.53;;;20.90;99.90;;;;;;4786769;29;20511;-42
2024/03/08 11:22:32;;;;;;;25.57;23.27;;;20.60;99.90;;;;;;4785658;29;20876;-44
2024/03/08 11:25:01;;;;;;;26.13;23.83;;;20.80;99.90;;;;;;4791578;29;20508;-49
2024/03/08 11:27:31;;;;;;;25.60;22.93;;;20.70;99.90;;;;;;4787926;29;20888;-45
2024/03/08 11:30:22;;;;;;;25.80;23.50;;;21.10;99.90;;;;;;4782414;29;20455;-50
2024/03/08 11:32:48;;;;;;;24.50;22.40;;;21.10;99.90;;;;;;4791302;29;20453;-42
2024/03/08 11:35:23;;;;;;;25.20;22.97;;;20.80;99.90;;;;;;4794131;29;20733;-42
2024/03/08 11:37:49;;;;;;;22.83;20.87;;;20.70;99.90;;;;;;4790253;29;20194;-46
2024/03/08 11:40:16;;;;;;;24.50;22.30;;;21.00;99.90;;;;;;4789190;29;20780;-46
2024/03/08 11:42:48;;;;;;;24.00;21.90;;;21.10;99.90;;;;;;4790781;29;21093;-47
2024/03/08 11:45:21;;;;;;;24.90;22.70;;;21.10;99.90;;;;;;4788762;29;20517;-44
2024/03/08 11:47:46;;;;;;;23.63;21.63;;;21.30;99.90;;;;;;4793539;29;20428;-44
2024/03/08 11:50:15;;;;;;;24.60;22.57;;;21.20;99.90;;;;;;4793806;29;20428;-43
2024/03/08 11:52:43;;;;;;;22.57;20.67;;;21.20;99.90;;;;;;4782873;29;21268;-41
2024/03/08 11:55:09;;;;;;;22.50;20.70;;;21.30;99.90;;;;;;4786420;29;20439;-44
2024/03/08 11:57:36;;;;;;;22.33;20.43;;;21.40;99.90;;;;;;4785015;29;20444;-49
2024/03/08 12:00:06;;;;;;;22.77;20.97;;;21.30;99.90;;;;;;4793387;29;20312;-42
2024/03/08 12:02:35;;;;;;;23.83;21.83;;;21.30;99.90;;;;;;4792571;29;20458;-60
2024/03/08 12:05:03;;;;;;;23.60;21.77;;;21.30;99.90;;;;;;4793061;29;20432;-60
2024/03/08 12:07:29;;;;;;;22.20;20.40;;;21.50;99.90;;;;;;4787664;29;20443;-53
2024/03/08 12:10:18;;;;;;;22.60;20.70;;;21.70;99.90;;;;;;4792912;29;20435;-60
2024/03/08 12:12:47;;;;;;;22.20;20.33;;;21.80;99.90;;;;;;4793943;29;20416;-59
2024/03/08 12:15:13;;;;;;;21.73;19.90;;;21.80;99.90;;;;;;4784411;29;20475;-58
2024/03/08 12:17:40;;;;;;;21.67;19.87;;;22.40;99.90;;;;;;4785990;29;20471;-59
2024/03/08 12:20:22;;;;;;;22.77;20.77;;;22.40;99.90;;;;;;4783367;29;20917;-49
2024/03/08 12:22:49;;;;;;;23.20;21.30;;;21.90;99.90;;;;;;4782777;29;21680;-45
2024/03/08 12:25:16;;;;;;;22.87;21.03;;;22.10;99.90;;;;;;4793393;29;20440;-42
2024/03/08 12:27:42;;;;;;;23.00;20.90;;;22.20;99.90;;;;;;4785259;29;20433;-46
2024/03/08 12:30:22;;;;;;;21.40;19.53;;;22.20;99.90;;;;;;4783994;29;20456;-47
2024/03/08 12:32:54;;;;;;;21.13;19.43;;;22.30;99.90;;;;;;4781365;29;20526;-45
2024/03/08 12:35:22;;;;;;;22.07;20.27;;;22.20;99.90;;;;;;4788071;29;20454;-43
2024/03/08 12:37:49;;;;;;;23.80;21.70;;;22.40;99.90;;;;;;4785123;29;20531;-47
2024/03/08 12:40:16;;;;;;;22.50;20.57;;;21.90;99.90;;;;;;4793277;29;20468;-48